Airfield :







YOU CAN JOIN US ON...

 
LOGIN :

Register | Disclaimer

   EN    FR    IT 

 









Legend :    VFR   Marginal VFR   IFR   Intensive IFR   Very Intensive IFR
Visi :
Ceiling :
>= 8 km
>= 3000ft
5 to 8 km
1000 to 3000 ft
1500m to 5 km
500 to 1000 ft
800 to 1500m
200 to 500 ft
< 800m
< 200 ft
Symbols :   Thunderstorms  Fog  Heavy snow  Heavy precipitations  Wind > 20 kt






- Airport Elevation : 586 ft
- IATA code : YRJ


CYRJ - Roberval

CURRENT METAR :
  • 282000Z 20011G17KT 20SM -SHSN BKN055 OVC065 00/M03 A2973 RMK SC5SC3 CVCTV CLD EMBD SLP079

EXPIRED METARs :
  • 281900Z CCA 20015G22KT 12SM -SHSN BKN041 OVC070 M00/M03 A2975 RMK SC7AC1 CVCTV CLD EMBD SLP088
  • 281800Z 21011G24KT 12SM -SHSN OVC036 M01/M04 A2978 RMK SC8 CVCTV CLD EMBD SLP098

TAF TAF CYRJ
Valid from the 28 at 20:00 until the 29 at 02:00 UTC


281938Z 2820/2902 20012G22KT P6SM OVC040
TEMPO 2820/2824 3SM -RASN BR OVC012
FM290000 21012G22KT P6SM BKN030
TEMPO 2900/2902 OVC012 RMK NXT FCST WILL BE ISSUED AT 291145Z
CZUL FIR / North America



MET'MAP, your aeronautical weather chart ! - Copyright ORBIFLY December 2007 - Disclaimer

ORBIFLY MET'MAP TEAM :

Programming & Development : Alexandra Zaïnal
Concept & original design : Baudouin d'Aumeries
Assistance for programming : Marc-Olivier Méhu
Technical & hardware support : Manuel Goepfert

Contact : metmap@orbifly.com




SOURCES & CREDITS :

   NOAA